Time;durP1;ratioP1;P1;durP2;ratioP2;P2;SDS_P1;SDS_P2;PMS_P1;PMS_P2;Temp;Humidity;BMP_temperature;BMP_pressure;BME280_temperature;BME280_humidity;BME280_pressure;Samples;Min_cycle;Max_cycle;Signal;HPM_P1;HPM_P2
2022/07/17 00:02:03;;;;;;;3.40;1.35;;;;;;;33.28;17.90;101023.75;5034803;28;20481;-73
2022/07/17 00:04:28;;;;;;;5.30;1.20;;;;;;;33.32;18.30;101035.09;5035413;28;20164;-74
2022/07/17 00:06:54;;;;;;;2.13;1.25;;;;;;;33.31;18.28;101034.31;5034806;28;20105;-74
2022/07/17 00:09:19;;;;;;;2.25;1.02;;;;;;;33.19;18.50;101030.47;5034678;28;20025;-72
2022/07/17 00:11:44;;;;;;;1.20;1.08;;;;;;;33.04;18.36;101029.97;5034776;28;20447;-73
2022/07/17 00:14:10;;;;;;;1.85;0.90;;;;;;;32.94;18.93;101033.72;5034416;28;20029;-74
2022/07/17 00:16:35;;;;;;;3.05;1.10;;;;;;;33.03;18.48;101031.38;5031232;28;20025;-75
2022/07/17 00:19:01;;;;;;;2.63;0.80;;;;;;;33.11;18.53;101031.97;5032465;28;20031;-74
2022/07/17 00:21:26;;;;;;;1.58;1.00;;;;;;;33.12;18.15;101031.34;5032416;28;20450;-73
2022/07/17 00:23:51;;;;;;;1.77;0.75;;;;;;;33.10;18.62;101043.03;5032233;28;20037;-74
2022/07/17 00:26:17;;;;;;;1.70;1.27;;;;;;;33.03;18.25;101040.22;5032625;28;20029;-74
2022/07/17 00:28:42;;;;;;;2.38;1.10;;;;;;;32.97;18.75;101044.25;5032222;28;20451;-74
2022/07/17 00:31:08;;;;;;;2.58;0.88;;;;;;;32.94;18.73;101041.78;5032457;28;20069;-74
2022/07/17 00:33:33;;;;;;;4.95;1.20;;;;;;;32.92;18.75;101045.34;5032542;28;20061;-74
2022/07/17 00:35:59;;;;;;;1.65;0.98;;;;;;;32.96;18.46;101051.56;5031121;28;20348;-74
2022/07/17 00:38:24;;;;;;;1.40;1.10;;;;;;;32.76;18.62;101052.19;5032283;28;20028;-74
2022/07/17 00:40:53;;;;;;;1.52;1.17;;;;;;;32.58;18.66;101052.28;5032111;28;20084;-74
2022/07/17 00:43:18;;;;;;;1.73;0.88;;;;;;;32.71;18.83;101053.28;5031994;28;20034;-74
2022/07/17 00:45:44;;;;;;;4.35;1.15;;;;;;;32.81;18.49;101057.75;5032276;28;20040;-74
2022/07/17 00:48:12;;;;;;;2.70;0.90;;;;;;;32.66;18.80;101057.28;5033003;28;20455;-75
2022/07/17 00:50:40;;;;;;;5.78;1.33;;;;;;;32.80;18.61;101056.22;5034304;28;20095;-74
2022/07/17 00:53:07;;;;;;;2.42;1.00;;;;;;;32.87;18.61;101060.41;5034140;28;20060;-73
2022/07/17 00:55:32;;;;;;;2.13;1.13;;;;;;;32.86;18.39;101052.97;5034065;28;20508;-73
2022/07/17 00:58:00;;;;;;;4.72;1.23;;;;;;;32.81;18.50;101048.91;5033857;28;20033;-74
2022/07/17 01:00:26;;;;;;;2.15;1.30;;;;;;;32.82;18.33;101052.63;5033803;28;20167;-74
2022/07/17 01:02:53;;;;;;;1.77;0.70;;;;;;;32.69;18.31;101050.94;5033700;28;20104;-74
2022/07/17 01:05:20;;;;;;;3.13;1.50;;;;;;;32.74;18.59;101055.75;5033463;28;20021;-73
2022/07/17 01:07:47;;;;;;;1.13;1.00;;;;;;;32.64;19.03;101060.84;5033642;28;20167;-73
2022/07/17 01:10:16;;;;;;;2.92;1.00;;;;;;;32.57;18.83;101068.41;5033810;28;20038;-73
2022/07/17 01:12:41;;;;;;;3.33;1.25;;;;;;;32.60;18.74;101060.50;5032394;28;20485;-74
2022/07/17 01:15:09;;;;;;;2.72;1.77;;;;;;;32.63;18.79;101065.16;5033604;28;20036;-75
2022/07/17 01:17:34;;;;;;;2.25;0.95;;;;;;;32.51;18.88;101067.94;5033471;28;20578;-74
2022/07/17 01:20:10;;;;;;;1.70;1.05;;;;;;;32.76;18.66;101064.00;5048872;28;20226;-74
2022/07/17 01:22:42;;;;;;;1.73;1.10;;;;;;;32.61;18.31;101073.09;5033647;28;20083;-74
2022/07/17 01:25:09;;;;;;;2.00;1.42;;;;;;;32.46;18.86;101063.13;5033633;28;20411;-74
2022/07/17 01:27:34;;;;;;;3.90;1.33;;;;;;;32.44;18.76;101073.97;5033631;28;20029;-74
2022/07/17 01:29:59;;;;;;;2.47;1.00;;;;;;;32.35;18.93;101054.88;5033702;28;20021;-74
2022/07/17 01:32:35;;;;;;;3.10;1.50;;;;;;;32.43;18.94;101064.34;5033350;28;20035;-74
2022/07/17 01:35:01;;;;;;;1.90;1.15;;;;;;;32.40;19.06;101071.50;5032032;28;20474;-74
2022/07/17 01:37:27;;;;;;;3.03;0.95;;;;;;;32.31;18.80;101071.47;5033420;28;20025;-74
2022/07/17 01:39:53;;;;;;;1.27;0.90;;;;;;;32.28;19.02;101075.63;5048828;28;20033;-74
2022/07/17 01:42:19;;;;;;;2.88;1.60;;;;;;;32.26;19.17;101079.22;5033654;28;20483;-74
2022/07/17 01:44:45;;;;;;;0.73;0.70;;;;;;;32.18;18.98;101066.75;5033499;28;20021;-73
2022/07/17 01:47:13;;;;;;;2.15;1.13;;;;;;;32.39;19.03;101078.78;5033563;28;20030;-75
2022/07/17 01:49:43;;;;;;;1.95;1.08;;;;;;;32.42;19.13;101086.38;5038057;28;20021;-75
2022/07/17 01:52:08;;;;;;;0.82;0.75;;;;;;;32.45;18.99;101076.31;5037191;28;20030;-72
2022/07/17 01:54:33;;;;;;;1.75;1.00;;;;;;;32.53;18.70;101082.84;5033539;28;20033;-74
2022/07/17 01:56:59;;;;;;;4.57;0.93;;;;;;;32.42;18.72;101077.53;5033487;28;20037;-73
2022/07/17 01:59:24;;;;;;;4.43;1.20;;;;;;;32.39;18.50;101078.78;5033915;28;20024;-74
2022/07/17 02:01:50;;;;;;;2.38;0.93;;;;;;;32.33;18.87;101075.34;5035241;28;20458;-74
2022/07/17 02:04:15;;;;;;;3.38;1.10;;;;;;;32.37;18.75;101075.66;5034810;28;20425;-75
2022/07/17 02:06:40;;;;;;;2.05;1.45;;;;;;;32.39;18.66;101080.94;5034789;28;20029;-75
2022/07/17 02:09:06;;;;;;;1.95;1.00;;;;;;;32.34;19.08;101071.00;5033947;28;20087;-74
2022/07/17 02:11:31;;;;;;;3.15;1.10;;;;;;;32.42;18.57;101085.59;5031808;28;20426;-75
2022/07/17 02:13:57;;;;;;;5.25;1.30;;;;;;;32.46;18.65;101080.06;5047657;28;20025;-74
2022/07/17 02:16:22;;;;;;;2.08;1.25;;;;;;;32.45;18.97;101082.22;5031761;28;20546;-74
2022/07/17 02:18:47;;;;;;;3.25;1.55;;;;;;;32.36;19.03;101082.97;5035787;28;20036;-73
2022/07/17 02:21:13;;;;;;;2.33;1.23;;;;;;;32.29;19.37;101091.94;5035581;28;20352;-73
2022/07/17 02:23:38;;;;;;;2.42;1.17;;;;;;;32.27;19.34;101088.84;5037021;28;20097;-73
2022/07/17 02:26:04;;;;;;;5.63;1.20;;;;;;;32.20;19.09;101069.09;5052189;28;20025;-73
2022/07/17 02:28:29;;;;;;;5.45;1.35;;;;;;;32.38;19.32;101089.03;5050707;28;20021;-73
2022/07/17 02:30:54;;;;;;;3.33;1.30;;;;;;;32.31;19.26;101098.00;5051539;28;20025;-74
2022/07/17 02:33:20;;;;;;;2.92;1.40;;;;;;;32.29;19.35;101097.84;5035032;28;20033;-74
2022/07/17 02:35:45;;;;;;;3.00;1.55;;;;;;;32.26;19.28;101096.91;5033167;28;20025;-74
2022/07/17 02:38:11;;;;;;;2.22;1.30;;;;;;;32.24;18.95;101093.78;5034666;28;20033;-74
2022/07/17 02:40:36;;;;;;;2.83;1.30;;;;;;;32.19;19.04;101102.91;5034218;28;20564;-74
2022/07/17 02:43:01;;;;;;;2.00;0.90;;;;;;;32.16;19.29;101104.94;5034325;28;20037;-74
2022/07/17 02:45:27;;;;;;;1.95;1.00;;;;;;;31.96;19.55;101083.38;5034178;28;20052;-75
2022/07/17 02:47:54;;;;;;;2.40;1.73;;;;;;;32.04;19.50;101095.84;5032920;28;20069;-74
2022/07/17 02:50:20;;;;;;;1.17;1.08;;;;;;;32.09;19.37;101100.66;5034484;28;20033;-73
2022/07/17 02:52:46;;;;;;;4.68;1.60;;;;;;;32.08;19.68;101099.09;5051970;28;20030;-75
2022/07/17 02:55:11;;;;;;;4.10;1.20;;;;;;;32.01;19.72;101094.13;5036138;28;20036;-73
2022/07/17 02:57:37;;;;;;;2.83;1.20;;;;;;;32.11;19.43;101100.09;5036402;28;20075;-74
2022/07/17 03:00:05;;;;;;;2.15;1.30;;;;;;;32.11;19.56;101094.97;5035916;28;20348;-75
2022/07/17 03:02:30;;;;;;;6.00;1.70;;;;;;;32.09;19.56;101096.94;5035892;28;20037;-73
2022/07/17 03:04:56;;;;;;;1.67;0.95;;;;;;;32.05;19.34;101096.63;5035847;28;20023;-73
2022/07/17 03:07:22;;;;;;;2.13;1.10;;;;;;;32.11;19.44;101097.94;5035965;28;20021;-75
2022/07/17 03:09:47;;;;;;;6.65;1.60;;;;;;;32.09;19.44;101096.94;5036106;28;20479;-74
2022/07/17 03:12:13;;;;;;;3.15;1.85;;;;;;;32.12;19.34;101099.47;5036136;28;20034;-74
2022/07/17 03:14:38;;;;;;;2.67;1.08;;;;;;;32.16;19.95;101098.25;5035787;28;20029;-74
2022/07/17 03:17:03;;;;;;;1.58;1.00;;;;;;;32.22;19.42;101084.00;5035725;28;20060;-74
2022/07/17 03:19:29;;;;;;;3.47;1.08;;;;;;;32.32;19.61;101099.53;5036039;28;20025;-74
2022/07/17 03:21:54;;;;;;;1.92;1.17;;;;;;;32.27;19.25;101100.63;5035963;28;20040;-73
2022/07/17 03:24:20;;;;;;;3.90;1.35;;;;;;;32.23;19.17;101101.06;5035577;28;20029;-73
2022/07/17 03:26:45;;;;;;;1.80;0.95;;;;;;;32.32;19.31;101106.22;5035485;28;20037;-74
2022/07/17 03:29:11;;;;;;;1.65;0.80;;;;;;;32.29;19.24;101107.47;5035209;28;20037;-74
2022/07/17 03:31:36;;;;;;;1.70;1.08;;;;;;;32.32;18.84;101103.28;5035711;28;20033;-74
2022/07/17 03:34:01;;;;;;;2.33;1.20;;;;;;;32.39;18.85;101108.28;5035096;28;20481;-74
2022/07/17 03:36:28;;;;;;;3.03;1.85;;;;;;;32.35;19.04;101107.19;5035182;28;20029;-74
2022/07/17 03:38:54;;;;;;;2.72;1.00;;;;;;;32.37;18.89;101114.00;5035261;28;20478;-73
2022/07/17 03:41:21;;;;;;;4.35;1.27;;;;;;;32.45;18.99;101113.91;5035079;28;20491;-74
2022/07/17 03:43:48;;;;;;;2.85;1.00;;;;;;;32.33;18.83;101095.22;5044752;28;20029;-73
2022/07/17 03:46:13;;;;;;;7.78;1.20;;;;;;;32.45;19.09;101114.69;5050589;28;20475;-74
2022/07/17 03:48:40;;;;;;;3.25;1.23;;;;;;;32.53;18.75;101111.59;5035331;28;20111;-74
2022/07/17 03:51:08;;;;;;;3.85;1.30;;;;;;;32.58;18.95;101111.28;5050627;28;20065;-74
2022/07/17 03:53:35;;;;;;;3.90;1.23;;;;;;;32.53;19.20;101120.44;5050266;28;20033;-74
2022/07/17 03:56:02;;;;;;;4.05;1.48;;;;;;;32.55;19.17;101118.44;5035114;28;20029;-75
2022/07/17 03:58:27;;;;;;;1.50;1.08;;;;;;;32.66;19.09;101120.06;5050241;28;20045;-73
2022/07/17 04:00:54;;;;;;;3.65;1.45;;;;;;;32.50;19.21;101122.47;5035061;28;20042;-73
2022/07/17 04:03:21;;;;;;;3.05;1.10;;;;;;;32.73;19.08;101125.03;5034817;28;20049;-74
2022/07/17 04:05:48;;;;;;;1.92;1.02;;;;;;;32.76;19.05;101108.28;5033550;28;20496;-74
2022/07/17 04:08:15;;;;;;;2.40;1.38;;;;;;;32.75;19.22;101115.56;5050116;28;20037;-73
2022/07/17 04:10:42;;;;;;;3.65;1.10;;;;;;;32.86;18.89;101130.50;5034630;28;20482;-73
2022/07/17 04:13:08;;;;;;;2.17;0.90;;;;;;;32.82;18.99;101118.38;5050069;28;20132;-74
2022/07/17 04:18:30;;;;;;;6.15;1.30;;;;;;;33.07;18.72;101129.91;5041728;28;20123;-75
2022/07/17 04:20:58;;;;;;;1.58;1.02;;;;;;;33.06;18.86;101136.47;5049861;28;20079;-75
2022/07/17 04:23:25;;;;;;;4.47;1.08;;;;;;;33.17;18.84;101129.94;5049699;28;20037;-75
2022/07/17 04:25:50;;;;;;;2.17;0.80;;;;;;;33.27;19.25;101136.63;5049908;28;20091;-73
2022/07/17 04:28:18;;;;;;;3.67;1.58;;;;;;;33.36;18.93;101132.91;5049852;28;20502;-73
2022/07/17 04:30:44;;;;;;;3.83;1.17;;;;;;;33.32;18.49;101129.66;5034413;28;20024;-74
2022/07/17 04:33:11;;;;;;;6.07;1.00;;;;;;;33.36;19.21;101130.72;5034193;28;20375;-73
2022/07/17 04:35:37;;;;;;;3.58;1.00;;;;;;;33.13;19.22;101126.66;5034678;28;20029;-73
2022/07/17 04:38:12;;;;;;;3.28;0.98;;;;;;;33.21;19.03;101136.94;5032983;28;20608;-73
2022/07/17 04:40:38;;;;;;;4.13;1.10;;;;;;;33.35;18.81;101141.00;5033739;28;20076;-73
2022/07/17 04:43:04;;;;;;;3.03;0.98;;;;;;;33.45;18.82;101143.19;5034187;28;20092;-73
2022/07/17 04:45:31;;;;;;;2.30;0.73;;;;;;;33.58;18.56;101142.72;5049621;28;20494;-73
2022/07/17 04:47:58;;;;;;;5.35;1.00;;;;;;;33.84;19.05;101138.81;5049333;28;20056;-73
2022/07/17 04:50:25;;;;;;;1.15;1.00;;;;;;;33.94;18.36;101141.75;5049360;28;20033;-73
2022/07/17 04:52:52;;;;;;;4.88;1.33;;;;;;;33.88;18.72;101150.16;5034237;28;20032;-74
2022/07/17 04:55:18;;;;;;;3.88;1.30;;;;;;;33.94;19.24;101148.44;5034147;28;20025;-72
2022/07/17 04:57:44;;;;;;;4.47;1.27;;;;;;;34.01;18.21;101155.59;5033819;28;20021;-72
2022/07/17 05:00:12;;;;;;;2.13;1.42;;;;;;;34.05;18.51;101162.56;5033853;28;20029;-73
2022/07/17 05:02:40;;;;;;;4.97;1.20;;;;;;;34.31;19.10;101151.16;5049227;28;20483;-72
2022/07/17 05:05:08;;;;;;;7.57;1.23;;;;;;;34.16;19.03;101164.09;5033672;28;20017;-77
2022/07/17 05:07:42;;;;;;;3.40;1.10;;;;;;;34.06;18.99;101169.28;5032633;28;20021;-77
2022/07/17 05:10:10;;;;;;;2.28;1.35;;;;;;;34.14;19.09;101184.69;5049214;28;20147;-76
2022/07/17 05:12:36;;;;;;;2.15;1.30;;;;;;;34.10;18.25;101179.22;5033767;28;20056;-76
2022/07/17 05:15:03;;;;;;;1.83;0.80;;;;;;;34.54;18.62;101178.00;5048988;28;20034;-77
2022/07/17 05:17:30;;;;;;;1.77;0.85;;;;;;;34.80;18.49;101174.03;5032340;28;20021;-76
2022/07/17 05:19:55;;;;;;;1.77;1.15;;;;;;;34.73;18.76;101183.13;5033722;28;20083;-75
2022/07/17 05:22:21;;;;;;;4.80;1.02;;;;;;;34.73;18.52;101192.78;5033920;28;20029;-78
2022/07/17 05:24:46;;;;;;;9.05;1.70;;;;;;;34.68;18.83;101185.00;5033502;28;20512;-77
2022/07/17 05:27:11;;;;;;;1.95;1.05;;;;;;;34.79;18.59;101174.66;5032286;28;20025;-78
2022/07/17 05:29:38;;;;;;;3.30;1.10;;;;;;;34.71;18.64;101180.78;5032192;28;20104;-76
2022/07/17 05:32:05;;;;;;;3.72;1.10;;;;;;;34.85;18.05;101183.97;5048696;28;20025;-77
2022/07/17 05:34:31;;;;;;;4.18;1.08;;;;;;;34.78;18.36;101182.00;5033641;28;20108;-79
2022/07/17 05:36:58;;;;;;;2.38;1.15;;;;;;;34.90;18.37;101194.69;5016039;28;20042;-77
2022/07/17 05:39:24;;;;;;;2.17;1.13;;;;;;;35.21;17.81;101185.81;5033872;28;20041;-77
2022/07/17 05:41:51;;;;;;;3.85;1.35;;;;;;;35.48;18.29;101192.16;5031997;28;20056;-78
2022/07/17 05:44:18;;;;;;;4.68;1.00;;;;;;;35.72;17.78;101190.13;5032256;28;20020;-77
2022/07/17 05:46:45;;;;;;;2.55;1.00;;;;;;;36.12;17.52;101186.88;5032083;28;20105;-77
2022/07/17 05:49:11;;;;;;;2.97;1.00;;;;;;;35.97;17.09;101195.50;5032213;28;20476;-77
2022/07/17 05:51:37;;;;;;;1.15;0.45;;;;;;;36.05;17.57;101190.88;5034944;28;20030;-78
2022/07/17 05:54:03;;;;;;;3.33;1.20;;;;;;;36.30;17.09;101187.38;5037636;28;20022;-77
2022/07/17 05:56:29;;;;;;;2.70;1.30;;;;;;;35.98;17.56;101194.06;5037322;28;20024;-76
2022/07/17 05:58:54;;;;;;;4.10;1.27;;;;;;;36.10;17.56;101200.84;5036349;28;20036;-77
2022/07/17 06:01:19;;;;;;;1.20;0.60;;;;;;;36.27;17.52;101194.56;5036092;28;20061;-76
2022/07/17 06:03:45;;;;;;;2.33;0.98;;;;;;;36.35;17.44;101195.91;5036080;28;20026;-76
2022/07/17 06:06:10;;;;;;;3.20;1.35;;;;;;;37.16;16.69;101198.13;5036828;28;20033;-78
2022/07/17 06:08:38;;;;;;;3.33;1.02;;;;;;;38.62;15.97;101194.19;5037069;28;20471;-76
2022/07/17 06:11:05;;;;;;;1.60;0.93;;;;;;;39.53;14.81;101187.22;5037141;28;20539;-75
2022/07/17 06:13:30;;;;;;;5.80;0.90;;;;;;;40.06;14.99;101176.56;5035581;28;20110;-77
2022/07/17 06:15:58;;;;;;;2.58;0.80;;;;;;;42.33;12.99;101183.22;5052399;28;20029;-76
2022/07/17 06:18:25;;;;;;;0.98;0.60;;;;;;;44.72;11.04;101175.31;5037147;28;20025;-76
2022/07/17 06:20:50;;;;;;;3.70;0.90;;;;;;;46.75;10.47;101160.31;5052231;28;20029;-75
2022/07/17 06:23:16;;;;;;;3.75;1.00;;;;;;;47.11;10.14;101153.53;5036917;28;20017;-76
2022/07/17 06:25:41;;;;;;;2.53;0.63;;;;;;;46.74;9.57;101151.97;5036083;28;20040;-76
2022/07/17 06:28:07;;;;;;;2.33;0.80;;;;;;;48.05;9.70;101157.56;5036749;28;20496;-77
2022/07/17 06:30:34;;;;;;;2.67;0.50;;;;;;;49.81;7.43;101149.13;5036437;28;20026;-77
2022/07/17 06:32:59;;;;;;;1.17;0.55;;;;;;;51.34;6.69;101140.84;5036685;28;20044;-75
2022/07/17 06:35:26;;;;;;;3.03;0.90;;;;;;;52.56;5.97;101140.75;5036617;28;20025;-75
2022/07/17 06:37:53;;;;;;;1.15;0.60;;;;;;;54.15;5.15;101132.81;5036634;28;20557;-75
2022/07/17 06:40:19;;;;;;;3.00;0.90;;;;;;;55.03;5.21;101117.97;5036238;28;20057;-75
2022/07/17 06:42:46;;;;;;;2.47;0.77;;;;;;;55.61;4.80;101127.78;5035280;28;20087;-76
2022/07/17 06:45:11;;;;;;;2.28;0.88;;;;;;;56.21;4.73;101119.00;5024669;28;20053;-75
2022/07/17 06:47:38;;;;;;;2.58;0.68;;;;;;;57.22;4.01;101116.06;5015845;28;20467;-75
2022/07/17 06:50:04;;;;;;;1.17;0.60;;;;;;;57.59;3.21;101105.16;5030670;28;20113;-75
2022/07/17 06:52:30;;;;;;;3.80;0.80;;;;;;;58.39;4.29;101110.63;5015970;28;20053;-75
2022/07/17 06:54:55;;;;;;;3.40;0.82;;;;;;;59.41;4.26;101108.16;5015820;28;20088;-74
2022/07/17 06:57:21;;;;;;;3.08;0.93;;;;;;;60.93;2.67;101104.88;5030683;28;20483;-76
2022/07/17 06:59:47;;;;;;;3.20;0.57;;;;;;;61.80;3.02;101113.50;5015364;28;20104;-76
2022/07/17 07:02:18;;;;;;;1.05;0.60;;;;;;;62.40;1.04;101110.72;5017555;28;20054;-78
2022/07/17 07:04:45;;;;;;;0.50;0.50;;;;;;;62.32;1.93;101107.28;5034346;28;20125;-76
2022/07/17 07:07:11;;;;;;;2.47;0.60;;;;;;;63.06;2.42;101115.25;5047479;28;20048;-76
2022/07/17 07:09:36;;;;;;;3.03;1.00;;;;;;;63.68;1.36;101108.19;5028906;28;20030;-75
2022/07/17 07:12:03;;;;;;;1.30;0.43;;;;;;;64.28;1.82;101112.69;5038053;28;20030;-76
2022/07/17 07:14:37;;;;;;;2.88;0.65;;;;;;;64.56;0.36;101117.28;5020645;28;20105;-75
2022/07/17 07:17:02;;;;;;;1.83;0.60;;;;;;;64.92;0.89;101111.34;5021257;28;20468;-75
2022/07/17 07:19:28;;;;;;;1.63;0.77;;;;;;;65.73;1.33;101102.59;5037248;28;20076;-76
2022/07/17 07:21:55;;;;;;;0.88;0.73;;;;;;;65.59;0.79;101091.78;5027761;28;20030;-76
2022/07/17 07:24:20;;;;;;;4.00;0.65;;;;;;;65.73;0.01;101090.91;5021471;28;20485;-78
2022/07/17 07:26:47;;;;;;;2.65;0.90;;;;;;;66.46;0.54;101083.16;5027581;28;20034;-75
2022/07/17 07:29:13;;;;;;;2.65;0.65;;;;;;;66.30;0.83;101080.31;5019362;28;20034;-77
2022/07/17 07:31:38;;;;;;;2.70;0.45;;;;;;;66.70;0.62;101083.91;5047767;28;20531;-77
2022/07/17 07:34:05;;;;;;;3.38;0.80;;;;;;;66.62;0.08;101074.38;5037742;28;20026;-77
2022/07/17 07:36:31;;;;;;;2.28;0.70;;;;;;;65.51;0.33;101076.00;5020808;28;20050;-76
2022/07/17 07:38:59;;;;;;;2.20;0.90;;;;;;;65.53;1.23;101075.91;5041262;28;20021;-76
2022/07/17 07:41:26;;;;;;;3.17;0.73;;;;;;;65.58;0.44;101074.78;4962100;28;1728405;-76
2022/07/17 07:43:55;;;;;;;0.73;0.40;;;;;;;65.27;0.74;101068.94;5025858;28;20040;-76
2022/07/17 07:46:28;;;;;;;1.50;0.75;;;;;;;65.37;0.90;101071.44;5026810;28;20036;-76
2022/07/17 07:48:56;;;;;;;2.35;0.60;;;;;;;64.50;0.71;101073.47;5025268;28;20076;-76
2022/07/17 07:51:21;;;;;;;1.35;0.70;;;;;;;65.03;0.97;101068.06;5035502;28;20116;-76
2022/07/17 07:53:49;;;;;;;2.63;0.70;;;;;;;65.25;0.90;101075.25;5025148;28;20109;-75
2022/07/17 07:56:14;;;;;;;0.57;0.40;;;;;;;63.99;0.31;101084.88;5027264;28;20037;-76
2022/07/17 07:58:42;;;;;;;2.22;0.63;;;;;;;64.09;0.55;101081.19;5035596;28;20072;-77
2022/07/17 08:01:08;;;;;;;3.90;0.57;;;;;;;64.45;1.23;101082.22;5040285;28;20026;-77
2022/07/17 08:03:33;;;;;;;1.17;0.60;;;;;;;64.31;1.06;101079.19;5041999;28;20028;-75
2022/07/17 08:06:00;;;;;;;1.75;0.50;;;;;;;64.63;0.69;101089.03;5037236;28;20021;-75
2022/07/17 08:08:26;;;;;;;1.15;0.60;;;;;;;64.82;1.19;101080.16;5035260;28;20038;-75
2022/07/17 08:10:52;;;;;;;1.58;0.73;;;;;;;63.43;0.86;101082.44;5035779;28;20417;-75
2022/07/17 08:13:19;;;;;;;1.67;0.40;;;;;;;60.82;2.36;101076.75;5053764;28;20037;-76
2022/07/17 08:15:44;;;;;;;2.28;0.70;;;;;;;57.95;3.14;101090.38;5040343;28;20068;-75
2022/07/17 08:18:10;;;;;;;2.30;0.73;;;;;;;57.49;3.70;101087.00;5043848;28;20471;-75
2022/07/17 08:20:42;;;;;;;2.70;0.45;;;;;;;57.82;3.35;101089.22;5038050;28;20033;-75
2022/07/17 08:23:09;;;;;;;3.97;0.75;;;;;;;56.83;3.60;101097.81;5040319;28;20056;-74
2022/07/17 08:25:35;;;;;;;2.35;0.60;;;;;;;56.60;3.96;101088.34;5046195;28;20041;-75
2022/07/17 08:28:07;;;;;;;2.47;0.60;;;;;;;57.32;3.60;101091.28;5016215;28;20112;-76
2022/07/17 08:30:39;;;;;;;3.97;0.77;;;;;;;57.05;2.84;101088.09;5034696;28;20135;-77
2022/07/17 08:33:08;;;;;;;0.85;0.68;;;;;;;56.03;3.39;101088.78;5033174;28;20040;-77
2022/07/17 08:35:35;;;;;;;2.33;0.60;;;;;;;54.82;4.15;101092.28;5034555;28;20114;-77
2022/07/17 08:38:08;;;;;;;0.90;0.60;;;;;;;52.69;5.74;101095.78;5035273;28;20390;-78
2022/07/17 08:40:38;;;;;;;4.70;0.82;;;;;;;51.95;5.41;101109.72;5033292;28;20037;-79
2022/07/17 08:43:07;;;;;;;1.73;0.60;;;;;;;52.44;5.68;101117.22;5029865;28;20053;-78
2022/07/17 08:45:33;;;;;;;2.35;0.60;;;;;;;52.67;6.12;101117.09;5031047;28;20035;-78
2022/07/17 08:47:58;;;;;;;1.25;0.60;;;;;;;53.70;5.35;101114.16;5032531;28;20470;-79
2022/07/17 08:50:26;;;;;;;2.60;1.00;;;;;;;54.16;4.21;101119.06;5034223;28;20075;-78
2022/07/17 08:52:52;;;;;;;4.60;0.80;;;;;;;54.19;4.14;101123.59;5032989;28;20487;-77
2022/07/17 08:55:18;;;;;;;1.63;0.57;;;;;;;54.15;4.94;101125.94;5033101;28;20028;-79
2022/07/17 08:57:45;;;;;;;2.22;0.60;;;;;;;53.71;4.81;101124.06;5031506;28;20105;-78
2022/07/17 09:00:12;;;;;;;1.52;0.45;;;;;;;52.75;4.61;101126.94;5031124;28;20033;-78
2022/07/17 09:02:39;;;;;;;3.08;0.50;;;;;;;51.92;5.83;101123.38;5032102;28;20025;-80
2022/07/17 09:05:05;;;;;;;3.38;0.88;;;;;;;51.64;5.43;101127.97;5030902;28;20048;-79
2022/07/17 09:07:31;;;;;;;4.50;0.82;;;;;;;50.88;5.90;101131.59;5047122;28;20033;-78
2022/07/17 09:09:57;;;;;;;4.03;0.73;;;;;;;49.46;6.92;101139.72;5031194;28;20025;-78
2022/07/17 09:12:29;;;;;;;2.30;0.47;;;;;;;48.97;7.96;101141.44;5034003;28;20029;-78
2022/07/17 09:14:56;;;;;;;1.15;0.68;;;;;;;49.19;7.11;101144.75;5032475;28;20059;-77
2022/07/17 09:17:24;;;;;;;3.33;0.60;;;;;;;49.23;6.43;101159.94;5032590;28;20053;-78
2022/07/17 09:19:50;;;;;;;1.95;0.63;;;;;;;48.87;6.93;101148.13;5034070;28;20093;-77
2022/07/17 09:22:18;;;;;;;3.15;0.57;;;;;;;48.63;7.20;101138.72;5034198;28;20044;-77
2022/07/17 09:24:51;;;;;;;1.88;0.70;;;;;;;48.77;7.57;101151.03;5033593;28;20028;-77
2022/07/17 09:27:36;;;;;;;3.90;1.08;;;;;;;49.00;7.02;101146.00;5032291;28;20018;-77
2022/07/17 09:30:11;;;;;;;1.95;1.00;;;;;;;49.31;6.52;101156.97;5031948;28;20486;-77
2022/07/17 09:32:40;;;;;;;3.53;0.55;;;;;;;48.71;6.41;101147.16;5033496;28;20018;-77
2022/07/17 09:35:08;;;;;;;3.00;0.93;;;;;;;48.63;6.22;101156.13;5032560;28;20045;-77
2022/07/17 09:37:35;;;;;;;3.30;0.90;;;;;;;49.28;6.98;101149.38;5033542;28;20036;-77
2022/07/17 09:40:01;;;;;;;1.42;0.90;;;;;;;48.36;7.05;101149.69;5033121;28;20083;-78
2022/07/17 09:42:31;;;;;;;2.40;1.00;;;;;;;48.72;7.31;101143.41;5032168;28;20083;-77
2022/07/17 09:44:59;;;;;;;1.77;0.57;;;;;;;49.15;6.57;101134.81;5033529;28;20027;-78
2022/07/17 09:47:25;;;;;;;4.47;0.93;;;;;;;49.15;6.23;101144.69;5032164;28;20042;-78
2022/07/17 09:49:54;;;;;;;0.52;0.35;;;;;;;49.07;6.57;101141.56;5033585;28;20029;-78
2022/07/17 09:52:22;;;;;;;1.80;0.82;;;;;;;48.62;7.33;101139.44;5033254;28;20025;-77
2022/07/17 09:54:48;;;;;;;2.72;0.73;;;;;;;48.38;6.70;101145.94;5032034;28;20040;-78
2022/07/17 09:57:14;;;;;;;0.73;0.73;;;;;;;47.64;7.02;101131.16;5033305;28;20105;-78
2022/07/17 09:59:42;;;;;;;0.88;0.50;;;;;;;47.58;7.34;101140.06;5033292;28;20159;-78
2022/07/17 10:02:08;;;;;;;2.13;0.63;;;;;;;47.36;6.92;101133.66;5033184;28;20041;-78
2022/07/17 10:04:35;;;;;;;2.10;0.70;;;;;;;47.60;7.66;101134.84;5032109;28;20017;-78
2022/07/17 10:07:01;;;;;;;1.20;0.70;;;;;;;47.73;7.53;101141.88;5031986;28;20021;-78
2022/07/17 10:09:26;;;;;;;1.42;0.60;;;;;;;47.95;7.50;101133.19;5032024;28;20474;-78
2022/07/17 10:11:52;;;;;;;1.67;0.80;;;;;;;47.94;7.04;101139.94;5033176;28;20482;-78
2022/07/17 10:14:18;;;;;;;4.18;0.80;;;;;;;47.17;7.38;101126.47;5031919;28;20108;-79
2022/07/17 10:16:45;;;;;;;2.40;0.80;;;;;;;47.01;7.68;101129.94;5031905;28;20021;-78
2022/07/17 10:19:20;;;;;;;2.33;0.68;;;;;;;47.13;8.61;101124.13;5033248;28;20356;-78
2022/07/17 10:21:57;;;;;;;5.25;1.15;;;;;;;47.44;8.07;101137.56;5031743;28;20026;-79
2022/07/17 10:24:24;;;;;;;2.20;0.77;;;;;;;47.66;7.79;101134.22;5032158;28;20056;-77
2022/07/17 10:26:50;;;;;;;4.10;0.73;;;;;;;47.44;7.01;101134.53;5033107;28;20108;-78
2022/07/17 10:29:33;;;;;;;3.30;0.73;;;;;;;47.52;7.76;101128.63;5033110;28;20051;-78
2022/07/17 10:32:01;;;;;;;1.20;0.68;;;;;;;47.71;7.54;101135.81;5033361;28;20367;-78
2022/07/17 10:34:46;;;;;;;1.10;1.00;;;;;;;47.70;7.36;101145.59;5033429;28;20034;-79
2022/07/17 10:37:18;;;;;;;10.23;1.17;;;;;;;47.29;7.40;101135.78;5033269;28;20028;-76
2022/07/17 10:40:00;;;;;;;2.78;0.75;;;;;;;47.75;7.40;101126.03;5037006;28;20037;-77
2022/07/17 10:42:43;;;;;;;4.13;0.80;;;;;;;48.05;7.28;101129.56;5052653;28;20041;-78
2022/07/17 10:45:14;;;;;;;4.75;1.40;;;;;;;48.13;6.67;101125.88;5038072;28;20097;-78
2022/07/17 10:48:03;;;;;;;2.63;0.82;;;;;;;48.63;6.46;101128.88;5038126;28;20017;-78
2022/07/17 10:50:38;;;;;;;1.98;0.75;;;;;;;48.52;6.32;101136.28;5038294;28;20022;-77
2022/07/17 10:53:09;;;;;;;2.38;0.90;;;;;;;48.60;6.49;101124.31;5036255;28;20091;-79
2022/07/17 10:55:41;;;;;;;2.72;0.75;;;;;;;48.10;6.64;101130.41;5037447;28;20057;-78
2022/07/17 10:58:29;;;;;;;2.17;0.82;;;;;;;48.03;7.32;101112.16;5036837;28;20083;-78
2022/07/17 11:01:09;;;;;;;3.85;0.90;;;;;;;46.33;8.86;101120.16;5036177;28;20368;-77
2022/07/17 11:03:50;;;;;;;5.97;0.85;;;;;;;45.91;8.55;101119.91;5035253;28;20018;-78
2022/07/17 11:06:25;;;;;;;1.98;0.77;;;;;;;46.17;8.47;101125.81;5036057;28;20029;-79
2022/07/17 11:09:04;;;;;;;1.35;0.90;;;;;;;45.86;8.63;101122.03;5036074;28;20060;-78
2022/07/17 11:11:46;;;;;;;2.38;0.88;;;;;;;45.85;8.08;101120.50;5035936;28;20022;-78
2022/07/17 11:14:26;;;;;;;2.08;0.70;;;;;;;45.89;8.04;101114.56;5051246;28;20029;-78
2022/07/17 11:16:57;;;;;;;2.42;0.70;;;;;;;46.13;8.41;101128.72;5035902;28;20022;-77
2022/07/17 11:19:33;;;;;;;3.80;1.42;;;;;;;46.03;8.55;101120.19;5035993;28;20033;-77
2022/07/17 11:22:00;;;;;;;2.00;0.80;;;;;;;45.39;8.66;101125.31;5034876;28;20501;-78
2022/07/17 11:24:35;;;;;;;2.25;0.57;;;;;;;45.26;9.22;101127.22;5035985;28;20044;-78
2022/07/17 11:27:01;;;;;;;1.70;0.60;;;;;;;45.55;8.44;101128.75;5035928;28;20025;-78
2022/07/17 11:29:26;;;;;;;1.73;0.60;;;;;;;44.93;8.39;101127.78;5035749;28;20481;-77
2022/07/17 11:31:55;;;;;;;4.40;1.58;;;;;;;44.72;8.86;101117.38;5035968;28;20033;-78
2022/07/17 11:34:24;;;;;;;0.75;0.30;;;;;;;44.40;8.62;101126.19;5035436;28;20065;-76